createdAt,value
2018-06-18T00:00:46.009Z,16.6
2018-06-18T00:02:08.361Z,16.6
2018-06-18T00:03:28.192Z,16.6
2018-06-18T00:04:50.545Z,16.6
2018-06-18T00:06:10.392Z,16.6
2018-06-18T00:07:32.782Z,16.6
2018-06-18T00:08:55.173Z,16.6
2018-06-18T00:10:15.025Z,16.6
2018-06-18T00:11:34.901Z,16.6
2018-06-18T00:12:54.790Z,16.6
2018-06-18T00:14:14.695Z,16.6
2018-06-18T00:15:34.598Z,16.6
2018-06-18T00:16:54.442Z,16.6
2018-06-18T00:18:19.323Z,16.6
2018-06-18T00:19:39.177Z,16.6
2018-06-18T00:21:01.603Z,16.6
2018-06-18T00:22:21.436Z,16.5
2018-06-18T00:23:41.292Z,16.6
2018-06-18T00:25:01.112Z,16.5
2018-06-18T00:26:26.003Z,16.5
2018-06-18T00:27:45.827Z,16.5
2018-06-18T00:29:05.688Z,16.6
2018-06-18T00:30:28.078Z,16.6
2018-06-18T00:31:55.500Z,16.6
2018-06-18T00:33:17.864Z,16.5
2018-06-18T00:34:42.799Z,16.6
2018-06-18T00:36:05.198Z,16.6
2018-06-18T00:37:25.054Z,16.6
2018-06-18T00:38:44.929Z,16.6
2018-06-18T00:40:07.335Z,16.6
2018-06-18T00:41:29.723Z,16.6
2018-06-18T00:42:49.572Z,16.6
2018-06-18T00:44:24.589Z,16.6
2018-06-18T00:45:54.564Z,16.6
2018-06-18T00:47:24.596Z,16.6
2018-06-18T00:48:44.451Z,16.6
2018-06-18T00:50:06.854Z,16.5
2018-06-18T00:51:29.222Z,16.6
2018-06-18T00:52:59.164Z,16.6
2018-06-18T00:54:21.544Z,16.6
2018-06-18T00:55:41.367Z,16.6
2018-06-18T00:57:03.766Z,16.6
2018-06-18T00:58:26.122Z,16.5
2018-06-18T00:59:51.023Z,16.5
2018-06-18T01:01:15.984Z,16.5
2018-06-18T01:02:43.395Z,16.5
2018-06-18T01:04:03.261Z,16.6
2018-06-18T01:05:28.149Z,16.5
2018-06-18T01:06:47.973Z,16.5
2018-06-18T01:08:12.859Z,16.5
2018-06-18T01:09:35.217Z,16.5
2018-06-18T01:10:55.072Z,16.5
2018-06-18T01:12:14.937Z,16.5
2018-06-18T01:13:39.897Z,16.5
2018-06-18T01:15:17.435Z,16.4
2018-06-18T01:16:42.316Z,16.5
2018-06-18T01:18:04.700Z,16.5
2018-06-18T01:19:27.073Z,16.5
2018-06-18T01:20:46.899Z,16.5
2018-06-18T01:22:06.756Z,16.5
2018-06-18T01:23:39.253Z,16.5
2018-06-18T01:24:59.104Z,16.5
2018-06-18T01:26:24.019Z,16.5
2018-06-18T01:27:43.922Z,16.5
2018-06-18T01:29:06.333Z,16.5
2018-06-18T01:30:28.690Z,16.5
2018-06-18T01:31:48.513Z,16.5
2018-06-18T01:33:45.788Z,16.5
2018-06-18T01:35:10.681Z,16.5
2018-06-18T01:37:00.874Z,16.5
2018-06-18T01:38:28.341Z,16.4
2018-06-18T01:39:48.210Z,16.5
2018-06-18T01:41:10.599Z,16.5
2018-06-18T01:42:40.546Z,16.4
2018-06-18T01:44:02.898Z,16.4
2018-06-18T01:45:22.725Z,16.4
2018-06-18T01:46:50.190Z,16.4
2018-06-18T01:48:12.539Z,16.4
2018-06-18T01:49:32.414Z,16.4
2018-06-18T01:50:54.855Z,16.4
2018-06-18T01:52:14.738Z,16.4
2018-06-18T01:53:34.591Z,16.5
2018-06-18T01:54:56.953Z,16.5
2018-06-18T01:56:19.364Z,16.5
2018-06-18T01:57:39.219Z,16.5
2018-06-18T01:59:01.575Z,16.5
2018-06-18T02:00:21.404Z,16.5
2018-06-18T02:01:43.753Z,16.5
2018-06-18T02:03:06.105Z,16.5
2018-06-18T02:04:38.590Z,16.5
2018-06-18T02:05:58.421Z,16.5
2018-06-18T02:07:18.250Z,16.5
2018-06-18T02:08:43.148Z,16.5
2018-06-18T02:10:13.148Z,16.5
2018-06-18T02:11:33.029Z,16.5
2018-06-18T02:12:52.863Z,16.5
2018-06-18T02:14:12.689Z,16.5
2018-06-18T02:15:35.043Z,16.5
2018-06-18T02:16:54.889Z,16.5
2018-06-18T02:18:17.248Z,16.5
2018-06-18T02:19:37.085Z,16.5
2018-06-18T02:20:59.466Z,16.5
2018-06-18T02:22:21.833Z,16.5
2018-06-18T02:23:41.683Z,16.5
2018-06-18T02:25:01.537Z,16.5
2018-06-18T02:26:41.611Z,16.3
2018-06-18T02:28:01.437Z,16.3
2018-06-18T02:29:23.790Z,16.3
2018-06-18T02:30:48.708Z,16.3
2018-06-18T02:32:08.610Z,16.3
2018-06-18T02:33:28.482Z,16.3
2018-06-18T02:34:48.324Z,16.3
2018-06-18T02:36:08.145Z,16.3
2018-06-18T02:37:30.532Z,16.3
2018-06-18T02:38:57.974Z,16.3
2018-06-18T02:40:22.909Z,16.3
2018-06-18T02:41:42.731Z,16.3
2018-06-18T02:43:25.400Z,16.3
2018-06-18T02:44:45.224Z,16.3
2018-06-18T02:46:07.585Z,16.3
2018-06-18T02:47:29.941Z,16.3
2018-06-18T02:48:52.300Z,16.3
2018-06-18T02:50:12.130Z,16.3
2018-06-18T02:51:31.968Z,16.3
2018-06-18T02:53:01.911Z,15.4
2018-06-18T02:54:21.782Z,15.8
2018-06-18T02:55:41.599Z,15.8
2018-06-18T02:57:01.481Z,15.8
2018-06-18T02:58:28.943Z,15.2
2018-06-18T03:00:04.040Z,16.5
2018-06-18T03:01:23.898Z,16.5
2018-06-18T03:02:46.258Z,16.5
2018-06-18T03:04:18.794Z,16.5
2018-06-18T03:05:38.636Z,16.5
2018-06-18T03:06:58.489Z,16.5
2018-06-18T03:08:18.368Z,16.5
2018-06-18T03:09:45.849Z,16.5
2018-06-18T03:11:10.780Z,16.5
2018-06-18T03:12:30.606Z,16.5
2018-06-18T03:13:50.453Z,16.5
2018-06-18T03:15:10.332Z,16.5
2018-06-18T03:16:30.159Z,16.5
2018-06-18T03:17:49.986Z,16.5
2018-06-18T03:19:19.974Z,16.5
2018-06-18T03:20:49.921Z,16.5
2018-06-18T03:22:17.360Z,16.5
2018-06-18T03:23:39.728Z,16.5
2018-06-18T03:25:09.675Z,16.5
2018-06-18T03:26:32.023Z,16.5
2018-06-18T03:27:51.846Z,16.5
2018-06-18T03:29:14.223Z,16.4
2018-06-18T03:30:34.150Z,16.4
2018-06-18T03:32:01.572Z,16.4
2018-06-18T03:33:21.450Z,16.5
2018-06-18T03:34:41.279Z,16.5
2018-06-18T03:36:01.110Z,16.5
2018-06-18T03:37:20.947Z,16.5
2018-06-18T03:38:40.774Z,16.5
2018-06-18T03:40:03.144Z,16.5
2018-06-18T03:41:23.005Z,16.5
2018-06-18T03:42:42.836Z,16.5
2018-06-18T03:44:07.776Z,16.5
2018-06-18T03:45:27.615Z,16.5
2018-06-18T03:46:52.514Z,16.5
2018-06-18T03:48:12.385Z,16.5
2018-06-18T03:49:34.762Z,16.5
2018-06-18T03:50:57.123Z,16.5
2018-06-18T03:52:21.999Z,16.5
2018-06-18T03:53:41.864Z,16.5
2018-06-18T03:55:01.687Z,16.5
2018-06-18T03:56:24.074Z,16.5
2018-06-18T03:57:43.949Z,16.5
2018-06-18T03:59:06.316Z,16.5
2018-06-18T04:00:26.160Z,16.4
2018-06-18T04:01:48.599Z,16.4
2018-06-18T04:03:08.494Z,16.4
2018-06-18T04:04:28.311Z,16.4
2018-06-18T04:06:03.391Z,16.4
2018-06-18T04:07:23.252Z,16.4
2018-06-18T04:08:48.201Z,16.4
2018-06-18T04:10:08.028Z,16.4
2018-06-18T04:11:35.501Z,16.4
2018-06-18T04:12:55.356Z,16.4
2018-06-18T04:14:15.236Z,16.4
2018-06-18T04:15:37.638Z,16.4
2018-06-18T04:16:57.484Z,16.4
2018-06-18T04:18:17.356Z,16.4
2018-06-18T04:19:39.539Z,16.4
2018-06-18T04:20:59.384Z,16.4
2018-06-18T04:22:19.239Z,16.4
2018-06-18T04:23:44.206Z,16.4
2018-06-18T04:25:04.117Z,16.4
2018-06-18T04:26:23.968Z,16.4
2018-06-18T04:27:51.404Z,16.5
2018-06-18T04:29:11.253Z,16.5
2018-06-18T04:30:33.634Z,16.5
2018-06-18T04:31:53.527Z,16.4
2018-06-18T04:33:13.374Z,16.4
2018-06-18T04:34:48.424Z,16.4
2018-06-18T04:36:10.800Z,16.5
2018-06-18T04:37:33.196Z,16.4
2018-06-18T04:38:55.634Z,16.5
2018-06-18T04:40:20.536Z,16.5
2018-06-18T04:41:45.427Z,16.5
2018-06-18T04:43:07.788Z,16.5
2018-06-18T04:44:32.695Z,16.5
2018-06-18T04:46:05.179Z,16.5
2018-06-18T04:47:27.556Z,16.5
2018-06-18T04:48:47.387Z,16.5
2018-06-18T04:50:09.761Z,16.5
2018-06-18T04:51:32.117Z,16.5
2018-06-18T04:52:59.586Z,16.5
2018-06-18T04:54:21.960Z,16.5
2018-06-18T04:55:41.817Z,16.5
2018-06-18T04:57:01.642Z,16.5
2018-06-18T04:58:29.156Z,16.5
2018-06-18T04:59:51.540Z,16.5
2018-06-18T05:01:16.425Z,16.5
2018-06-18T05:02:36.253Z,16.5
2018-06-18T05:04:03.760Z,16.5
2018-06-18T05:05:23.616Z,16.5
2018-06-18T05:06:46.035Z,16.5
2018-06-18T05:08:05.864Z,16.5
2018-06-18T05:09:33.347Z,16.5
2018-06-18T05:10:53.209Z,16.5
2018-06-18T05:12:15.570Z,16.5
2018-06-18T05:13:35.394Z,16.5
2018-06-18T05:14:55.243Z,16.5
2018-06-18T05:16:15.064Z,16.5
2018-06-18T05:17:37.422Z,16.6
2018-06-18T05:18:57.258Z,16.6
2018-06-18T05:20:27.262Z,16.6
2018-06-18T05:22:02.274Z,16.7
2018-06-18T05:23:22.128Z,16.7
2018-06-18T05:24:41.948Z,16.7
2018-06-18T05:26:09.374Z,16.7
2018-06-18T05:27:29.195Z,16.8
2018-06-18T05:29:01.709Z,16.8
2018-06-18T05:30:21.557Z,16.9
2018-06-18T05:31:41.433Z,16.9
2018-06-18T05:33:03.809Z,16.9
2018-06-18T05:34:28.748Z,16.9
2018-06-18T05:35:48.602Z,16.9
2018-06-18T05:37:10.952Z,17
2018-06-18T05:38:35.838Z,17
2018-06-18T05:39:58.216Z,17
2018-06-18T05:41:18.108Z,17
2018-06-18T05:42:40.478Z,17
2018-06-18T05:44:05.393Z,17
2018-06-18T05:45:25.213Z,17
2018-06-18T05:46:45.037Z,17
2018-06-18T05:48:04.868Z,17
2018-06-18T05:49:27.278Z,17
2018-06-18T05:50:47.106Z,17.1
2018-06-18T05:52:06.934Z,17.1
2018-06-18T05:53:26.770Z,17.1
2018-06-18T05:54:49.159Z,17.1
2018-06-18T05:56:19.128Z,17.1
2018-06-18T05:57:41.526Z,17.1
2018-06-18T05:59:03.898Z,17.1
2018-06-18T06:00:38.942Z,17.1
2018-06-18T06:02:01.306Z,17.2
2018-06-18T06:03:21.135Z,17.1
2018-06-18T06:04:46.067Z,17.2
2018-06-18T06:06:10.987Z,17.2
2018-06-18T06:07:40.925Z,17.2
2018-06-18T06:09:08.352Z,17.2
2018-06-18T06:10:38.322Z,17.2
2018-06-18T06:11:58.170Z,17.2
2018-06-18T06:13:18.024Z,17.2
2018-06-18T06:14:53.089Z,17.2
2018-06-18T06:16:12.946Z,17.3
2018-06-18T06:17:40.408Z,17.3
2018-06-18T06:19:00.234Z,17.3
2018-06-18T06:20:20.054Z,17.4
2018-06-18T06:21:39.912Z,17.3
2018-06-18T06:23:02.277Z,17.4
2018-06-18T06:24:27.183Z,17.4
2018-06-18T06:25:52.072Z,17.4
2018-06-18T06:27:14.435Z,17.4
2018-06-18T06:28:36.783Z,17.4
2018-06-18T06:30:01.665Z,17.4
2018-06-18T06:31:26.545Z,17.4
2018-06-18T06:32:48.907Z,17.5
2018-06-18T06:34:18.885Z,17.5
2018-06-18T06:35:41.294Z,17.6
2018-06-18T06:37:11.247Z,17.6
2018-06-18T06:38:33.690Z,17.6
2018-06-18T06:39:53.548Z,17.6
2018-06-18T06:41:13.403Z,17.6
2018-06-18T06:42:35.755Z,17.6
2018-06-18T06:43:58.183Z,17.7
2018-06-18T06:45:23.095Z,17.7
2018-06-18T06:46:50.518Z,17.7
2018-06-18T06:48:12.898Z,17.7
2018-06-18T06:49:40.325Z,17.7
2018-06-18T06:51:02.676Z,17.8
2018-06-18T06:52:22.555Z,17.7
2018-06-18T06:53:42.391Z,17.7
2018-06-18T06:55:02.214Z,17.8
2018-06-18T06:56:29.695Z,17.9
2018-06-18T06:57:49.525Z,17.9
2018-06-18T06:59:09.363Z,18
2018-06-18T07:00:29.182Z,17.9
2018-06-18T07:01:51.554Z,17.9
2018-06-18T07:03:11.375Z,18
2018-06-18T07:04:31.254Z,18
2018-06-18T07:05:58.697Z,18
2018-06-18T07:07:21.103Z,18.1
2018-06-18T07:08:43.525Z,18.1
2018-06-18T07:10:03.433Z,18.1
2018-06-18T07:11:23.287Z,18.1
2018-06-18T07:12:43.144Z,18.1
2018-06-18T07:14:08.048Z,18.1
2018-06-18T07:15:30.403Z,18.1
2018-06-18T07:16:50.228Z,18.2
2018-06-18T07:18:10.092Z,18.2
2018-06-18T07:19:32.480Z,18.2
2018-06-18T07:20:57.425Z,18.2
2018-06-18T07:22:24.868Z,18.3
2018-06-18T07:23:44.705Z,18.2
2018-06-18T07:25:17.200Z,18.3
2018-06-18T07:26:37.037Z,18.3
2018-06-18T07:28:01.920Z,18.4
2018-06-18T07:29:24.293Z,18.4
2018-06-18T07:30:46.734Z,18.3
2018-06-18T07:32:06.677Z,18.3
2018-06-18T07:33:29.062Z,18.3
2018-06-18T07:34:48.889Z,18.4
2018-06-18T07:36:11.247Z,18.4
2018-06-18T07:37:36.189Z,18.5
2018-06-18T07:38:58.565Z,18.4
2018-06-18T07:40:23.485Z,18.4
2018-06-18T07:41:45.841Z,18.4
2018-06-18T07:43:13.286Z,18.5
2018-06-18T07:44:33.148Z,18.5
2018-06-18T07:45:53.001Z,18.5
2018-06-18T07:47:12.890Z,18.6
2018-06-18T07:48:32.795Z,18.6
2018-06-18T07:49:55.195Z,18.5
2018-06-18T07:51:17.626Z,18.6
2018-06-18T07:52:37.452Z,18.6
2018-06-18T07:54:02.364Z,18.6
2018-06-18T07:55:22.247Z,18.6
2018-06-18T07:56:47.192Z,18.7
2018-06-18T07:58:07.010Z,18.7
2018-06-18T07:59:26.837Z,18.7
2018-06-18T08:00:46.730Z,18.7
2018-06-18T08:02:11.683Z,18.7
2018-06-18T08:03:34.064Z,18.7
2018-06-18T08:04:53.901Z,18.7
2018-06-18T08:06:16.246Z,18.8
2018-06-18T08:07:38.592Z,18.8
2018-06-18T08:08:58.457Z,18.8
2018-06-18T08:10:18.316Z,18.8
2018-06-18T08:11:38.169Z,18.8
2018-06-18T08:13:03.145Z,18.8
2018-06-18T08:14:48.356Z,18.8
2018-06-18T08:16:18.348Z,18.9
2018-06-18T08:17:45.801Z,18.9
2018-06-18T08:19:08.279Z,18.9
2018-06-18T08:20:30.658Z,18.9
2018-06-18T08:21:50.506Z,18.9
2018-06-18T08:23:10.352Z,19
2018-06-18T08:24:30.180Z,19
2018-06-18T08:25:50.044Z,19
2018-06-18T08:27:09.869Z,19
2018-06-18T08:28:29.712Z,19
2018-06-18T08:29:49.543Z,19.1
2018-06-18T08:31:09.377Z,19.1
2018-06-18T08:32:36.821Z,19.1
2018-06-18T08:33:56.650Z,19.2
2018-06-18T08:35:16.516Z,19.2
2018-06-18T08:36:36.346Z,19.2
2018-06-18T08:37:58.696Z,19.2
2018-06-18T08:39:18.573Z,19.2
2018-06-18T08:40:38.419Z,19.3
2018-06-18T08:42:03.321Z,19.3
2018-06-18T08:43:30.757Z,19.3
2018-06-18T08:44:50.577Z,19.4
2018-06-18T08:46:15.467Z,19.4
2018-06-18T08:47:40.363Z,19.4
2018-06-18T08:49:02.767Z,19.5
2018-06-18T08:50:22.657Z,19.5
2018-06-18T08:51:45.009Z,19.5
2018-06-18T08:53:04.930Z,19.6
2018-06-18T08:54:24.759Z,19.6
2018-06-18T08:55:44.592Z,19.6
2018-06-18T08:57:06.978Z,19.6
2018-06-18T08:58:29.332Z,19.7
2018-06-18T08:59:49.208Z,19.7
2018-06-18T09:01:11.563Z,19.7
2018-06-18T09:02:31.450Z,19.7
2018-06-18T09:04:09.007Z,19.8
2018-06-18T09:05:28.853Z,19.8
2018-06-18T09:06:48.718Z,19.8
2018-06-18T09:08:08.542Z,19.8
2018-06-18T09:09:28.378Z,19.9
2018-06-18T09:10:48.249Z,19.9
2018-06-18T09:12:08.100Z,20
2018-06-18T09:13:27.977Z,20
2018-06-18T09:14:47.828Z,20
2018-06-18T09:16:10.208Z,20
2018-06-18T09:17:30.033Z,20.1
2018-06-18T09:18:52.438Z,20.1
2018-06-18T09:20:19.848Z,20.1
2018-06-18T09:21:39.693Z,20.1
2018-06-18T09:22:59.513Z,20.1
2018-06-18T09:24:19.341Z,20.2
2018-06-18T09:25:39.219Z,20.2
2018-06-18T09:27:01.628Z,20.2
2018-06-18T09:28:21.459Z,20.3
2018-06-18T09:29:43.836Z,20.3
2018-06-18T09:31:06.187Z,20.3
2018-06-18T09:32:26.275Z,20.4
2018-06-18T09:33:48.812Z,20.4
2018-06-18T09:35:16.221Z,20.4
2018-06-18T09:36:41.136Z,20.4
2018-06-18T09:38:03.507Z,20.4
2018-06-18T09:39:33.524Z,20.4
2018-06-18T09:40:53.352Z,20.4
2018-06-18T09:42:15.764Z,20.5
2018-06-18T09:43:35.590Z,20.4
2018-06-18T09:44:57.974Z,20.5
2018-06-18T09:46:22.890Z,20.5
2018-06-18T09:47:42.794Z,20.5
2018-06-18T09:49:02.649Z,20.5
2018-06-18T09:50:25.020Z,20.5
2018-06-18T09:51:44.846Z,20.5
2018-06-18T09:53:07.286Z,20.5
2018-06-18T09:54:27.150Z,20.5
2018-06-18T09:55:47.164Z,20.5
2018-06-18T09:57:14.694Z,20.5
2018-06-18T09:58:39.589Z,20.5
2018-06-18T09:59:59.416Z,20.6
2018-06-18T10:01:21.762Z,20.6
2018-06-18T10:02:41.631Z,20.6
2018-06-18T10:04:09.076Z,20.6
2018-06-18T10:05:33.997Z,20.6
2018-06-18T10:06:56.353Z,20.6
2018-06-18T10:08:16.243Z,20.6
2018-06-18T10:09:41.216Z,20.6
2018-06-18T10:11:06.105Z,20.6
2018-06-18T10:12:25.937Z,20.6
2018-06-18T10:13:45.821Z,20.6
2018-06-18T10:15:10.752Z,20.6
2018-06-18T10:16:30.583Z,20.6
2018-06-18T10:17:50.411Z,20.6
2018-06-18T10:19:10.264Z,20.6
2018-06-18T10:20:42.761Z,20.6
2018-06-18T10:22:10.217Z,20.6
2018-06-18T10:23:30.056Z,20.6
2018-06-18T10:24:52.459Z,20.6
2018-06-18T10:26:14.817Z,20.6
2018-06-18T10:27:37.197Z,20.6
2018-06-18T10:28:59.604Z,20.6
2018-06-18T10:30:24.527Z,20.6
2018-06-18T10:31:44.388Z,20.6
2018-06-18T10:33:09.320Z,20.6
2018-06-18T10:34:31.669Z,20.6
2018-06-18T10:35:51.549Z,20.6
2018-06-18T10:37:13.899Z,20.6
2018-06-18T10:38:38.791Z,20.7
2018-06-18T10:40:01.220Z,20.6
2018-06-18T10:41:21.086Z,20.6
2018-06-18T10:42:43.468Z,20.6
2018-06-18T10:44:03.357Z,20.6
2018-06-18T10:45:23.207Z,20.6
2018-06-18T10:46:48.120Z,20.6
2018-06-18T10:48:07.949Z,20.6
2018-06-18T10:49:27.797Z,20.6
2018-06-18T10:50:50.176Z,20.6
2018-06-18T10:52:12.556Z,20.6
2018-06-18T10:53:32.466Z,20.7
2018-06-18T10:54:52.370Z,20.7
2018-06-18T10:56:12.222Z,20.7
2018-06-18T10:57:32.106Z,20.7
2018-06-18T10:58:52.015Z,20.7
2018-06-18T11:00:11.873Z,20.7
2018-06-18T11:01:34.278Z,20.7
2018-06-18T11:02:54.494Z,20.8
2018-06-18T11:04:19.388Z,20.8
2018-06-18T11:05:41.757Z,20.8
2018-06-18T11:07:06.648Z,20.8
2018-06-18T11:08:29.046Z,20.9
2018-06-18T11:10:04.058Z,20.9
2018-06-18T11:11:23.895Z,20.9
2018-06-18T11:12:46.327Z,21
2018-06-18T11:14:08.688Z,21
2018-06-18T11:15:38.682Z,21
2018-06-18T11:16:58.712Z,21.1
2018-06-18T11:18:21.289Z,21.2
2018-06-18T11:19:48.713Z,21.2
2018-06-18T11:21:13.599Z,21.3
2018-06-18T11:22:33.442Z,21.3
2018-06-18T11:23:58.368Z,21.4
2018-06-18T11:25:18.281Z,21.4
2018-06-18T11:26:38.232Z,21.4
2018-06-18T11:27:58.160Z,21.5
2018-06-18T11:29:20.513Z,21.5
2018-06-18T11:30:47.927Z,21.6
2018-06-18T11:32:07.761Z,21.6
2018-06-18T11:33:30.120Z,21.7
2018-06-18T11:34:52.560Z,21.7
2018-06-18T11:36:12.453Z,21.8
2018-06-18T11:37:32.308Z,21.8
2018-06-18T11:38:52.161Z,21.8
2018-06-18T11:40:12.066Z,21.9
2018-06-18T11:41:36.997Z,22
2018-06-18T11:42:56.948Z,22
2018-06-18T11:44:24.380Z,22
2018-06-18T11:45:46.812Z,22.1
2018-06-18T11:47:06.668Z,22.2
2018-06-18T11:48:26.504Z,22.3
2018-06-18T11:49:48.882Z,22.3
2018-06-18T11:51:16.334Z,22.3
2018-06-18T11:52:36.216Z,22.4
2018-06-18T11:54:01.116Z,22.4
2018-06-18T11:55:26.040Z,22.5
2018-06-18T11:56:53.459Z,22.5
2018-06-18T11:58:20.939Z,22.6
2018-06-18T11:59:48.371Z,22.6
2018-06-18T12:01:18.349Z,22.7
2018-06-18T12:02:43.277Z,22.9
2018-06-18T12:04:03.155Z,23
2018-06-18T12:05:25.507Z,23.1
2018-06-18T12:06:45.339Z,23.1
2018-06-18T12:08:05.167Z,23.3
2018-06-18T12:09:25.077Z,23.3
2018-06-18T12:11:00.101Z,23.5
2018-06-18T12:12:19.948Z,23.6
2018-06-18T12:13:39.827Z,23.7
2018-06-18T12:15:02.231Z,23.9
2018-06-18T12:16:24.638Z,24
2018-06-18T12:17:49.573Z,24
2018-06-18T12:19:09.409Z,24.1
2018-06-18T12:20:31.788Z,24.1
2018-06-18T12:21:51.694Z,24.3
2018-06-18T12:23:16.659Z,24.3
2018-06-18T12:24:36.562Z,24.3
2018-06-18T12:25:56.399Z,24.2
2018-06-18T12:27:16.224Z,24.3
2018-06-18T12:28:38.632Z,24.5
2018-06-18T12:29:58.455Z,24.6
2018-06-18T12:31:18.281Z,24.5
2018-06-18T12:32:38.108Z,24.4
2018-06-18T12:34:03.036Z,24.5
2018-06-18T12:35:22.865Z,24.5
2018-06-18T12:36:42.742Z,24.7
2018-06-18T12:38:02.566Z,24.7
2018-06-18T12:39:27.455Z,24.9
2018-06-18T12:40:52.346Z,25
2018-06-18T12:42:14.696Z,25.2
2018-06-18T12:43:37.123Z,25.2
2018-06-18T12:44:56.981Z,25.3
2018-06-18T12:46:21.950Z,25.3
2018-06-18T12:47:44.367Z,25.2
2018-06-18T12:49:04.202Z,25.1
2018-06-18T12:50:24.032Z,25.1
2018-06-18T12:51:43.855Z,25.1
2018-06-18T12:53:16.405Z,25
2018-06-18T12:54:36.304Z,25
2018-06-18T12:55:56.181Z,25.1
2018-06-18T12:57:21.134Z,25.2
2018-06-18T12:58:46.076Z,25.2
2018-06-18T13:00:13.579Z,25.1
2018-06-18T13:01:33.406Z,25.2
2018-06-18T13:02:58.287Z,25.2
2018-06-18T13:04:18.160Z,25.4
2018-06-18T13:05:43.039Z,25.4
2018-06-18T13:07:02.871Z,25.2
2018-06-18T13:08:22.693Z,25.3
2018-06-18T13:09:42.518Z,25.5
2018-06-18T13:11:02.342Z,25.4
2018-06-18T13:12:22.190Z,25.4
2018-06-18T13:13:42.040Z,25.4
2018-06-18T13:15:01.904Z,25.3
2018-06-18T13:16:21.777Z,25.1
2018-06-18T13:17:41.643Z,25.4
2018-06-18T13:19:01.550Z,25.4
2018-06-18T13:20:36.597Z,25.4
2018-06-18T13:21:56.451Z,25.3
2018-06-18T13:23:16.303Z,25.5
2018-06-18T13:24:36.159Z,25.6
2018-06-18T13:25:55.990Z,25.7
2018-06-18T13:27:18.427Z,25.5
2018-06-18T13:28:48.414Z,25.6
2018-06-18T13:30:23.450Z,25.6
2018-06-18T13:31:45.808Z,25.6
2018-06-18T13:33:05.691Z,25.6
2018-06-18T13:34:30.581Z,25.5
2018-06-18T13:35:55.474Z,25.6
2018-06-18T13:37:17.824Z,25.6
2018-06-18T13:38:37.646Z,25.3
2018-06-18T13:40:00.020Z,25.3
2018-06-18T13:41:24.908Z,25.4
2018-06-18T13:42:44.758Z,25.3
2018-06-18T13:44:09.693Z,25.3
2018-06-18T13:45:34.614Z,25.3
2018-06-18T13:46:54.436Z,25.3
2018-06-18T13:48:16.822Z,25.2
2018-06-18T13:49:39.175Z,25.2
2018-06-18T13:51:01.551Z,25.1
2018-06-18T13:52:31.584Z,25.1
2018-06-18T13:53:54.052Z,25.1
2018-06-18T13:55:16.435Z,24.9
2018-06-18T13:56:36.293Z,24.9
2018-06-18T13:58:03.702Z,24.8
2018-06-18T13:59:23.531Z,24.8
2018-06-18T14:00:43.382Z,24.8
2018-06-18T14:02:13.360Z,24.8
2018-06-18T14:03:35.717Z,24.8
2018-06-18T14:04:58.111Z,24.7
2018-06-18T14:06:17.984Z,24.7
2018-06-18T14:07:40.348Z,24.8
2018-06-18T14:09:00.195Z,24.8
2018-06-18T14:10:20.050Z,24.9
2018-06-18T14:11:52.546Z,24.9
2018-06-18T14:13:14.912Z,24.8
2018-06-18T14:14:34.735Z,24.8
2018-06-18T14:15:57.146Z,24.9
2018-06-18T14:17:16.991Z,24.8
2018-06-18T14:18:36.845Z,24.8
2018-06-18T14:19:59.212Z,24.7
2018-06-18T14:21:36.814Z,24.7
2018-06-18T14:23:04.249Z,24.7
2018-06-18T14:24:26.629Z,24.7
2018-06-18T14:25:48.987Z,24.6
2018-06-18T14:27:11.370Z,24.6
2018-06-18T14:28:31.257Z,24.5
2018-06-18T14:29:51.128Z,24.5
2018-06-18T14:31:11.035Z,24.5
2018-06-18T14:32:33.462Z,24.5
2018-06-18T14:33:58.415Z,24.5
2018-06-18T14:35:18.283Z,24.5
2018-06-18T14:36:38.114Z,24.5
2018-06-18T14:37:57.935Z,24.5
2018-06-18T14:39:17.806Z,24.5
2018-06-18T14:40:37.631Z,24.3
2018-06-18T14:42:05.135Z,24.4
2018-06-18T14:43:25.025Z,24.4
2018-06-18T14:44:44.849Z,24.4
2018-06-18T14:46:04.927Z,24.4
2018-06-18T14:47:24.787Z,24.4
2018-06-18T14:48:44.629Z,24.4
2018-06-18T14:50:04.465Z,24.3
2018-06-18T14:51:36.983Z,24.4
2018-06-18T14:53:01.875Z,24.4
2018-06-18T14:54:24.278Z,24.4
2018-06-18T14:55:46.728Z,24.3
2018-06-18T14:57:09.134Z,24.3
2018-06-18T14:58:31.576Z,24.3
2018-06-18T14:59:56.539Z,24.3
2018-06-18T15:01:16.461Z,24.3
2018-06-18T15:02:36.368Z,24.2
2018-06-18T15:03:58.787Z,24.2
2018-06-18T15:05:31.302Z,24.1
2018-06-18T15:06:53.677Z,24.1
2018-06-18T15:08:13.501Z,24.2
2018-06-18T15:09:33.424Z,24.2
2018-06-18T15:10:53.283Z,24.2
2018-06-18T15:12:13.118Z,24.1
2018-06-18T15:13:50.708Z,24.1
2018-06-18T15:15:10.636Z,24.1
2018-06-18T15:16:35.563Z,24.1
2018-06-18T15:17:55.399Z,24.1
2018-06-18T15:19:15.233Z,24.1
2018-06-18T15:20:35.148Z,24.1
2018-06-18T15:22:00.085Z,24
2018-06-18T15:23:19.919Z,24
2018-06-18T15:24:44.853Z,24
2018-06-18T15:26:04.734Z,24
2018-06-18T15:27:24.636Z,23.9
2018-06-18T15:28:52.064Z,23.9
2018-06-18T15:30:16.957Z,24
2018-06-18T15:31:57.075Z,23.9
2018-06-18T15:33:16.899Z,23.9
2018-06-18T15:34:46.892Z,23.8
2018-06-18T15:36:06.772Z,23.8
2018-06-18T15:37:26.648Z,23.8
2018-06-18T15:38:49.006Z,23.8
2018-06-18T15:40:11.396Z,23.7
2018-06-18T15:41:36.370Z,23.7
2018-06-18T15:42:56.277Z,23.6
2018-06-18T15:44:18.682Z,23.6
2018-06-18T15:45:38.510Z,23.6
2018-06-18T15:46:58.396Z,23.6
2018-06-18T15:48:18.279Z,23.5
2018-06-18T15:49:38.111Z,23.5
2018-06-18T15:50:57.942Z,23.5
2018-06-18T15:52:20.289Z,23.4
2018-06-18T15:53:45.231Z,23.4
2018-06-18T15:55:12.663Z,23.3
2018-06-18T15:56:32.669Z,23.3
2018-06-18T15:58:00.238Z,23.3
2018-06-18T15:59:22.618Z,23.2
2018-06-18T16:00:50.098Z,23.2
2018-06-18T16:02:12.450Z,23.1
2018-06-18T16:03:32.311Z,23.1
2018-06-18T16:04:57.207Z,23.1
2018-06-18T16:06:17.042Z,23
2018-06-18T16:07:44.474Z,23
2018-06-18T16:09:04.317Z,23
2018-06-18T16:10:24.145Z,22.9
2018-06-18T16:11:44.020Z,22.9
2018-06-18T16:13:03.911Z,22.9
2018-06-18T16:14:23.735Z,22.8
2018-06-18T16:15:43.567Z,22.8
2018-06-18T16:17:03.397Z,22.8
2018-06-18T16:18:28.301Z,22.7
2018-06-18T16:19:48.173Z,22.7
2018-06-18T16:21:08.000Z,22.7
2018-06-18T16:22:30.366Z,22.7
2018-06-18T16:23:52.767Z,22.7
2018-06-18T16:25:17.701Z,22.6
2018-06-18T16:26:40.072Z,22.6
2018-06-18T16:27:59.896Z,22.6
2018-06-18T16:29:22.299Z,22.6
2018-06-18T16:30:42.123Z,22.6
2018-06-18T16:32:01.939Z,22.5
2018-06-18T16:33:21.814Z,22.5
2018-06-18T16:34:41.636Z,22.5
2018-06-18T16:36:01.461Z,22.5
2018-06-18T16:37:21.319Z,22.5
2018-06-18T16:38:48.809Z,22.4
2018-06-18T16:40:08.675Z,22.4
2018-06-18T16:41:31.182Z,22.4
2018-06-18T16:42:51.116Z,22.4
2018-06-18T16:44:23.580Z,22.4
2018-06-18T16:45:43.446Z,22.3
2018-06-18T16:47:05.828Z,22.3
2018-06-18T16:48:30.868Z,22.3
2018-06-18T16:49:50.820Z,22.3
2018-06-18T16:51:10.680Z,22.3
2018-06-18T16:52:30.533Z,22.2
2018-06-18T16:53:52.897Z,22.2
2018-06-18T16:55:20.329Z,22.2
2018-06-18T16:56:45.211Z,22.2
2018-06-18T16:58:05.118Z,22.2
2018-06-18T16:59:32.593Z,22.1
2018-06-18T17:00:54.943Z,22.1
2018-06-18T17:02:17.312Z,22.1
2018-06-18T17:03:47.256Z,22.1
2018-06-18T17:05:09.677Z,22
2018-06-18T17:06:29.514Z,22
2018-06-18T17:07:51.874Z,22
2018-06-18T17:09:26.881Z,22
2018-06-18T17:10:49.262Z,21.9
2018-06-18T17:12:09.137Z,21.9
2018-06-18T17:13:28.963Z,21.9
2018-06-18T17:14:58.934Z,21.9
2018-06-18T17:16:21.296Z,21.8
2018-06-18T17:17:41.207Z,21.8
2018-06-18T17:19:01.101Z,21.8
2018-06-18T17:20:20.961Z,21.8
2018-06-18T17:21:48.391Z,21.8
2018-06-18T17:23:08.263Z,21.8
2018-06-18T17:24:28.082Z,21.8
2018-06-18T17:25:47.904Z,21.8
2018-06-18T17:27:12.839Z,21.8
2018-06-18T17:28:37.749Z,21.8
2018-06-18T17:30:05.171Z,21.8
2018-06-18T17:31:27.535Z,21.8
2018-06-18T17:32:52.475Z,21.9
2018-06-18T17:34:12.299Z,22
2018-06-18T17:35:32.122Z,22
2018-06-18T17:36:57.023Z,22
2018-06-18T17:38:16.904Z,22.1
2018-06-18T17:39:36.740Z,22.1
2018-06-18T17:41:04.152Z,22.1
2018-06-18T17:42:26.554Z,22.1
2018-06-18T17:43:46.387Z,22.1
2018-06-18T17:45:06.217Z,22.1
2018-06-18T17:46:26.092Z,22.2
2018-06-18T17:47:45.952Z,22.1
2018-06-18T17:49:08.305Z,22.1
2018-06-18T17:50:33.196Z,22.1
2018-06-18T17:51:55.622Z,22.2
2018-06-18T17:53:15.485Z,22.1
2018-06-18T17:54:35.347Z,22.1
2018-06-18T17:56:00.254Z,22.1
2018-06-18T17:57:20.102Z,22.1
2018-06-18T17:58:39.924Z,22.1
2018-06-18T18:00:04.869Z,22.1
2018-06-18T18:01:24.801Z,22
2018-06-18T18:02:49.753Z,22
2018-06-18T18:04:09.592Z,22
2018-06-18T18:05:29.441Z,21.9
2018-06-18T18:06:49.266Z,21.9
2018-06-18T18:08:09.087Z,21.9
2018-06-18T18:09:28.921Z,21.9
2018-06-18T18:10:56.409Z,21.8
2018-06-18T18:12:21.318Z,21.8
2018-06-18T18:13:43.713Z,21.8
2018-06-18T18:15:08.597Z,21.8
2018-06-18T18:16:33.506Z,21.7
2018-06-18T18:17:53.333Z,21.7
2018-06-18T18:19:13.178Z,21.7
2018-06-18T18:20:33.014Z,21.7
2018-06-18T18:21:52.832Z,21.6
2018-06-18T18:23:15.273Z,21.6
2018-06-18T18:24:40.198Z,21.6
2018-06-18T18:26:05.124Z,21.6